Time;durP1;ratioP1;P1;durP2;ratioP2;P2;SDS_P1;SDS_P2;PMS_P1;PMS_P2;Temp;Humidity;BMP_temperature;BMP_pressure;BME280_temperature;BME280_humidity;BME280_pressure;Samples;Min_cycle;Max_cycle;Signal;HPM_P1;HPM_P2
2021/03/14 00:01:27;;;;;;;;;;;;;;;7.86;47.71;98148.50;4830194;29;20022;-75
2021/03/14 00:03:54;;;;;;;;;;;;;;;7.84;48.24;98142.50;4832785;29;19941;-76
2021/03/14 00:06:22;;;;;;;;;;;;;;;7.81;48.48;98143.53;4835682;29;19945;-76
2021/03/14 00:08:49;;;;;;;;;;;;;;;7.81;48.69;98150.56;4832107;29;19960;-76
2021/03/14 00:11:16;;;;;;;;;;;;;;;7.79;48.92;98152.44;4834331;29;19935;-75
2021/03/14 00:13:43;;;;;;;;;;;;;;;7.77;48.83;98159.56;4830467;29;20008;-76
2021/03/14 00:16:10;;;;;;;;;;;;;;;7.75;48.80;98157.03;4831851;29;19937;-76
2021/03/14 00:18:37;;;;;;;;;;;;;;;7.74;49.45;98159.75;4836258;29;19933;-75
2021/03/14 00:21:06;;;;;;;;;;;;;;;7.74;49.60;98165.00;4834061;29;19959;-75
2021/03/14 00:23:34;;;;;;;;;;;;;;;7.72;49.53;98166.88;4834462;29;19932;-75
2021/03/14 00:26:02;;;;;;;;;;;;;;;7.68;49.60;98170.63;4835656;29;20008;-75
2021/03/14 00:28:29;;;;;;;;;;;;;;;7.66;49.92;98170.72;4828674;29;19985;-75
2021/03/14 00:30:56;;;;;;;;;;;;;;;7.66;50.06;98170.72;4832203;29;19937;-76
2021/03/14 00:33:23;;;;;;;;;;;;;;;7.64;49.90;98172.56;4845706;29;19987;-75
2021/03/14 00:35:51;;;;;;;;;;;;;;;7.64;50.28;98180.47;4833604;29;19960;-76
2021/03/14 00:38:18;;;;;;;;;;;;;;;7.61;50.00;98186.75;4833039;29;19935;-75
2021/03/14 00:40:46;;;;;;;;;;;;;;;7.61;50.53;98183.28;4834268;29;20394;-76
2021/03/14 00:43:13;;;;;;;;;;;;;;;7.59;50.60;98186.00;4829403;29;19947;-76
2021/03/14 00:45:40;;;;;;;;;;;;;;;7.58;50.62;98188.72;4836649;29;20730;-75
2021/03/14 00:48:28;;;;;;;;;;;;;;;7.58;50.53;98196.63;4831262;29;20018;-76
2021/03/14 00:50:55;;;;;;;;;;;;;;;7.56;50.59;98185.31;4837742;29;19991;-76
2021/03/14 00:53:31;;;;;;;;;;;;;;;7.55;50.88;98196.75;4831587;29;19936;-76
2021/03/14 00:56:02;;;;;;;;;;;;;;;7.53;50.95;98201.28;4827662;29;19936;-76
2021/03/14 00:58:29;;;;;;;;;;;;;;;7.50;51.31;98191.78;4827062;29;19937;-76
2021/03/14 01:00:56;;;;;;;;;;;;;;;7.50;50.97;98198.81;4833573;29;19936;-74
2021/03/14 01:03:23;;;;;;;;;;;;;;;7.49;51.36;98205.84;4833291;29;19968;-76
2021/03/14 01:05:52;;;;;;;;;;;;;;;7.47;51.62;98205.94;4830507;29;20036;-76
2021/03/14 01:08:22;;;;;;;;;;;;;;;7.46;51.22;98213.94;4846120;29;20701;-75
2021/03/14 01:10:50;;;;;;;;;;;;;;;7.60;50.62;98211.38;4828787;29;19933;-76
2021/03/14 01:13:30;;;;;;;;;;;;;;;7.76;49.23;98216.63;4831492;29;21165;-75
2021/03/14 01:15:57;;;;;;;;;;;;;;;7.86;47.84;98219.56;4829835;29;20409;-76
2021/03/14 01:18:25;;;;;;;;;;;;;;;7.94;46.78;98225.25;4833948;29;20035;-75
2021/03/14 01:20:52;;;;;;;;;;;;;;;7.92;46.30;98231.56;4834565;29;19928;-76
2021/03/14 01:23:19;;;;;;;;;;;;;;;7.84;47.03;98225.88;4830354;29;19928;-74
2021/03/14 01:25:46;;;;;;;;;;;;;;;7.79;47.80;98231.41;4826273;29;19984;-75
2021/03/14 01:28:12;;;;;;;;;;;;;;;7.77;48.29;98236.75;4833788;29;20003;-75
2021/03/14 01:30:40;;;;;;;;;;;;;;;7.82;47.69;98239.94;4833994;29;19962;-75
2021/03/14 01:33:07;;;;;;;;;;;;;;;7.91;46.93;98243.03;4831692;29;19944;-74
2021/03/14 01:35:34;;;;;;;;;;;;;;;7.98;45.79;98244.34;4835312;29;20472;-76
2021/03/14 01:38:02;;;;;;;;;;;;;;;8.02;44.84;98253.78;4832112;29;20028;-75
2021/03/14 01:40:28;;;;;;;;;;;;;;;8.08;44.29;98260.50;4832376;29;20002;-76
2021/03/14 01:42:55;;;;;;;;;;;;;;;8.10;43.49;98267.38;4839779;29;19933;-77
2021/03/14 01:45:23;;;;;;;;;;;;;;;8.13;43.51;98269.00;4836448;29;19986;-76
2021/03/14 01:47:52;;;;;;;;;;;;;;;8.14;42.81;98276.78;4835726;29;19941;-76
2021/03/14 01:50:20;;;;;;;;;;;;;;;8.14;42.29;98284.69;4838004;29;19995;-76
2021/03/14 01:52:47;;;;;;;;;;;;;;;8.14;41.95;98287.34;4835495;29;20417;-76
2021/03/14 01:55:15;;;;;;;;;;;;;;;8.16;41.64;98286.41;4833145;29;19936;-75
2021/03/14 01:57:42;;;;;;;;;;;;;;;8.16;41.94;98294.31;4838811;29;20000;-76
2021/03/14 02:00:10;;;;;;;;;;;;;;;8.17;41.77;98288.06;4837856;29;19996;-75
2021/03/14 02:02:40;;;;;;;;;;;;;;;7.98;41.39;98295.25;4838325;29;19936;-76
2021/03/14 02:05:10;;;;;;;;;;;;;;;7.84;42.66;98299.56;4830156;29;20438;-75
2021/03/14 02:07:38;;;;;;;;;;;;;;;7.73;43.21;98306.25;4832139;29;19940;-74
2021/03/14 02:10:06;;;;;;;;;;;;;;;7.63;43.86;98316.44;4834119;29;19961;-74
2021/03/14 02:12:36;;;;;;;;;;;;;;;7.57;44.53;98327.31;4833096;29;19936;-75
2021/03/14 02:15:04;;;;;;;;;;;;;;;7.53;44.90;98333.66;4833816;29;19971;-74
2021/03/14 02:17:32;;;;;;;;;;;;;;;7.47;45.02;98337.47;4834193;29;19937;-76
2021/03/14 02:20:02;;;;;;;;;;;;;;;7.44;46.09;98337.63;4833065;29;20477;-74
2021/03/14 02:22:30;;;;;;;;;;;;;;;7.43;45.94;98354.34;4833178;29;19941;-75
2021/03/14 02:24:59;;;;;;;;;;;;;;;7.42;46.27;98357.03;4819272;29;19943;-75
2021/03/14 02:27:27;;;;;;;;;;;;;;;7.39;46.50;98357.22;4834035;29;19933;-75
2021/03/14 02:29:55;;;;;;;;;;;;;;;7.38;47.24;98361.63;4834362;29;19928;-76
2021/03/14 02:32:23;;;;;;;;;;;;;;;7.36;47.44;98370.53;4834340;29;19988;-75
2021/03/14 02:34:52;;;;;;;;;;;;;;;7.34;47.60;98377.66;4831020;29;19929;-75
2021/03/14 02:37:21;;;;;;;;;;;;;;;7.33;47.92;98384.69;4835058;29;20286;-75
2021/03/14 02:39:48;;;;;;;;;;;;;;;7.32;48.13;98383.00;4834450;29;20080;-74
2021/03/14 02:42:16;;;;;;;;;;;;;;;7.31;48.44;98397.06;4831920;29;20387;-74
2021/03/14 02:44:47;;;;;;;;;;;;;;;7.28;48.56;98408.59;4833765;29;19933;-74
2021/03/14 02:47:15;;;;;;;;;;;;;;;7.27;48.99;98412.16;4827802;29;20039;-74
2021/03/14 02:50:00;;;;;;;;;;;;;;;7.27;49.42;98421.81;4831533;29;19948;-75
2021/03/14 02:52:27;;;;;;;;;;;;;;;7.25;49.30;98429.81;4838682;29;19928;-75
2021/03/14 02:54:55;;;;;;;;;;;;;;;7.24;49.69;98435.97;4844911;29;19936;-75
2021/03/14 02:57:24;;;;;;;;;;;;;;;7.20;49.60;98441.50;4834532;29;20359;-74
2021/03/14 02:59:53;;;;;;;;;;;;;;;7.22;49.60;98460.66;4837197;29;20004;-74
2021/03/14 03:02:20;;;;;;;;;;;;;;;7.21;49.65;98465.06;4829911;29;19939;-73
2021/03/14 03:04:48;;;;;;;;;;;;;;;7.20;50.16;98468.63;4828688;29;19932;-74
2021/03/14 03:07:16;;;;;;;;;;;;;;;7.19;50.21;98477.44;4835049;29;19936;-74
2021/03/14 03:09:45;;;;;;;;;;;;;;;7.19;50.15;98479.22;4838670;29;19928;-74
2021/03/14 03:12:15;;;;;;;;;;;;;;;7.18;50.49;98485.41;4837980;29;19940;-75
2021/03/14 03:14:43;;;;;;;;;;;;;;;7.16;50.23;98485.50;4833622;29;19933;-74
2021/03/14 03:17:11;;;;;;;;;;;;;;;7.15;50.66;98495.13;4830649;29;19936;-73
2021/03/14 03:19:39;;;;;;;;;;;;;;;7.14;50.57;98497.84;4835530;29;19932;-73
2021/03/14 03:22:06;;;;;;;;;;;;;;;7.13;51.07;98506.66;4834064;29;19951;-74
2021/03/14 03:24:33;;;;;;;;;;;;;;;7.11;51.09;98509.38;4831888;29;19936;-74
2021/03/14 03:27:00;;;;;;;;;;;;;;;7.11;51.38;98516.41;4832214;29;19939;-73
2021/03/14 03:29:27;;;;;;;;;;;;;;;7.11;51.31;98529.56;4844640;29;20774;-74
2021/03/14 03:31:55;;;;;;;;;;;;;;;7.10;51.20;98531.31;4827625;29;19947;-75
2021/03/14 03:34:23;;;;;;;;;;;;;;;7.09;51.67;98537.53;4833145;29;20319;-75
2021/03/14 03:36:50;;;;;;;;;;;;;;;7.07;51.75;98543.78;4837167;29;19936;-74
2021/03/14 03:39:17;;;;;;;;;;;;;;;7.06;51.71;98542.91;4835140;29;19937;-74
2021/03/14 03:41:51;;;;;;;;;;;;;;;7.05;52.03;98546.50;4833259;29;19929;-74
2021/03/14 03:44:20;;;;;;;;;;;;;;;7.04;52.03;98557.94;4827894;29;19933;-75
2021/03/14 03:46:48;;;;;;;;;;;;;;;7.23;50.65;98568.41;4814297;29;19944;-74
2021/03/14 03:49:17;;;;;;;;;;;;;;;7.29;49.33;98564.63;4832550;29;19933;-74
2021/03/14 03:51:45;;;;;;;;;;;;;;;7.45;47.88;98577.88;4826756;29;19928;-75
2021/03/14 03:54:14;;;;;;;;;;;;;;;7.52;46.97;98584.53;4831747;29;19936;-74
2021/03/14 03:56:41;;;;;;;;;;;;;;;7.55;46.29;98589.66;4828576;29;19937;-74
2021/03/14 03:59:09;;;;;;;;;;;;;;;7.59;45.26;98593.84;4826796;29;19932;-74
2021/03/14 04:01:37;;;;;;;;;;;;;;;7.65;44.41;98600.56;4830301;29;20671;-74
2021/03/14 04:04:06;;;;;;;;;;;;;;;7.63;44.01;98594.56;4830741;29;19929;-76
2021/03/14 04:06:34;;;;;;;;;;;;;;;7.52;45.05;98602.09;4831662;29;19932;-76
2021/03/14 04:09:03;;;;;;;;;;;;;;;7.44;46.48;98607.75;4834168;29;19979;-77
2021/03/14 04:11:30;;;;;;;;;;;;;;;7.42;47.05;98614.84;4829219;29;19936;-75
2021/03/14 04:13:58;;;;;;;;;;;;;;;7.43;47.11;98612.16;4831294;29;19936;-76
2021/03/14 04:16:25;;;;;;;;;;;;;;;7.54;46.10;98622.16;4835691;29;19985;-76
2021/03/14 04:18:52;;;;;;;;;;;;;;;7.61;45.45;98623.53;4834742;29;19939;-74
2021/03/14 04:21:20;;;;;;;;;;;;;;;7.67;44.44;98625.03;4833537;29;19940;-75
2021/03/14 04:23:49;;;;;;;;;;;;;;;7.72;43.85;98632.69;4838580;29;19928;-76
2021/03/14 04:26:18;;;;;;;;;;;;;;;7.74;43.17;98650.13;4842979;29;20427;-76
2021/03/14 04:28:46;;;;;;;;;;;;;;;7.75;42.90;98651.00;4828847;29;20022;-75
2021/03/14 04:31:14;;;;;;;;;;;;;;;7.74;42.80;98660.66;4831490;29;23195;-76
2021/03/14 04:33:42;;;;;;;;;;;;;;;7.77;42.17;98668.41;4832334;29;19933;-75
2021/03/14 04:36:10;;;;;;;;;;;;;;;7.80;41.97;98670.00;4845112;29;19946;-75
2021/03/14 04:38:38;;;;;;;;;;;;;;;7.82;41.66;98671.66;4835172;29;19936;-76
2021/03/14 04:41:06;;;;;;;;;;;;;;;7.82;41.37;98678.69;4829190;29;19937;-76
2021/03/14 04:43:35;;;;;;;;;;;;;;;7.64;41.81;98685.69;4832701;29;19928;-76
2021/03/14 04:46:02;;;;;;;;;;;;;;;7.51;42.65;98681.97;4833505;29;19944;-75
2021/03/14 04:48:29;;;;;;;;;;;;;;;7.37;42.98;98691.38;4830786;29;19940;-74
2021/03/14 04:50:56;;;;;;;;;;;;;;;7.36;43.79;98712.50;4830856;29;19936;-75
2021/03/14 04:53:26;;;;;;;;;;;;;;;7.27;44.29;98722.50;4829788;29;19929;-75
2021/03/14 04:55:54;;;;;;;;;;;;;;;7.25;44.80;98718.22;4829325;29;20006;-75
2021/03/14 04:58:22;;;;;;;;;;;;;;;7.20;45.07;98720.25;4832386;29;19962;-75
2021/03/14 05:00:50;;;;;;;;;;;;;;;7.18;45.68;98728.19;4832140;29;19936;-76
2021/03/14 05:03:20;;;;;;;;;;;;;;;7.14;46.47;98732.75;4831284;29;20884;-75
2021/03/14 05:05:48;;;;;;;;;;;;;;;7.13;46.75;98738.91;4831265;29;19954;-75
2021/03/14 05:08:17;;;;;;;;;;;;;;;7.10;47.06;98744.28;4826214;29;19940;-76
2021/03/14 05:10:45;;;;;;;;;;;;;;;7.08;47.17;98751.41;4830807;29;19956;-76
2021/03/14 05:13:13;;;;;;;;;;;;;;;7.07;47.82;98756.75;4837769;29;19937;-75
2021/03/14 05:15:40;;;;;;;;;;;;;;;7.06;47.79;98762.91;4831734;29;19936;-75
2021/03/14 05:18:11;;;;;;;;;;;;;;;7.05;48.48;98771.72;4834450;29;19932;-75
2021/03/14 05:20:39;;;;;;;;;;;;;;;7.03;48.36;98774.44;4838750;29;19933;-75
2021/03/14 05:23:07;;;;;;;;;;;;;;;7.02;48.44;98787.66;4845847;29;19932;-75
2021/03/14 05:25:34;;;;;;;;;;;;;;;7.01;48.59;98785.94;4833378;29;19989;-75
2021/03/14 05:28:02;;;;;;;;;;;;;;;7.00;49.05;98800.88;4834157;29;22799;-76
2021/03/14 05:30:30;;;;;;;;;;;;;;;6.99;49.38;98809.66;4834431;29;19955;-75
2021/03/14 05:32:57;;;;;;;;;;;;;;;6.98;49.28;98807.94;4837378;29;19944;-75
2021/03/14 05:35:26;;;;;;;;;;;;;;;6.99;49.68;98814.94;4831238;29;19944;-76
2021/03/14 05:37:53;;;;;;;;;;;;;;;7.00;49.90;98818.41;4847813;29;20009;-75
2021/03/14 05:40:21;;;;;;;;;;;;;;;6.98;49.79;98835.09;4833746;29;19944;-76
2021/03/14 05:42:49;;;;;;;;;;;;;;;6.98;49.91;98836.88;4835062;29;19939;-74
2021/03/14 05:45:17;;;;;;;;;;;;;;;6.98;50.31;98842.13;4833549;29;19932;-75
2021/03/14 05:47:45;;;;;;;;;;;;;;;6.98;50.28;98850.03;4833962;29;19936;-75
2021/03/14 05:50:14;;;;;;;;;;;;;;;7.00;50.30;98860.47;4848126;29;19933;-75
2021/03/14 05:52:43;;;;;;;;;;;;;;;6.97;50.59;98851.81;4847294;29;20527;-75
2021/03/14 05:55:14;;;;;;;;;;;;;;;6.98;50.59;98865.78;4833736;29;20332;-75
2021/03/14 05:57:44;;;;;;;;;;;;;;;6.94;50.85;98861.59;4836370;29;19971;-75
2021/03/14 06:00:15;;;;;;;;;;;;;;;6.98;50.82;98877.16;4835211;29;19944;-74
2021/03/14 06:02:43;;;;;;;;;;;;;;;6.98;50.81;98884.19;4835059;29;19943;-74
2021/03/14 06:05:13;;;;;;;;;;;;;;;6.98;51.27;98892.91;4833161;29;19932;-75
2021/03/14 06:07:40;;;;;;;;;;;;;;;6.97;51.13;98891.25;4836525;29;19932;-76
2021/03/14 06:10:09;;;;;;;;;;;;;;;6.99;51.38;98899.06;4834646;29;20004;-75
2021/03/14 06:12:35;;;;;;;;;;;;;;;6.97;51.41;98914.91;4834591;29;19928;-75
2021/03/14 06:15:03;;;;;;;;;;;;;;;6.98;51.23;98915.75;4818176;29;20313;-76
2021/03/14 06:17:30;;;;;;;;;;;;;;;7.00;51.34;98916.53;4830955;29;20051;-76
2021/03/14 06:19:57;;;;;;;;;;;;;;;7.02;51.68;98924.38;4834624;29;19929;-75
2021/03/14 06:22:40;;;;;;;;;;;;;;;7.04;51.48;98933.03;4833853;29;20413;-75
2021/03/14 06:25:09;;;;;;;;;;;;;;;7.18;50.51;98941.19;4836248;29;20001;-76
2021/03/14 06:27:37;;;;;;;;;;;;;;;7.31;49.06;98942.41;4837451;29;20462;-75
2021/03/14 06:30:07;;;;;;;;;;;;;;;7.41;47.85;98955.16;4835674;29;19931;-75
2021/03/14 06:32:34;;;;;;;;;;;;;;;7.52;46.67;98954.69;4833780;29;19932;-76
2021/03/14 06:35:09;;;;;;;;;;;;;;;7.62;45.85;98963.91;4826216;29;20386;-75
2021/03/14 06:37:40;;;;;;;;;;;;;;;7.67;45.09;98961.91;4838537;29;19935;-76
2021/03/14 06:40:08;;;;;;;;;;;;;;;7.74;44.65;98971.25;4835483;29;20289;-75
2021/03/14 06:42:37;;;;;;;;;;;;;;;7.74;43.92;98973.88;4834781;29;19988;-76
2021/03/14 06:45:06;;;;;;;;;;;;;;;7.78;43.30;98978.06;4832811;29;19932;-74
2021/03/14 06:47:36;;;;;;;;;;;;;;;7.76;43.31;98989.59;4828987;29;19936;-75
2021/03/14 06:50:04;;;;;;;;;;;;;;;7.61;45.05;98991.97;4832891;29;19939;-75
2021/03/14 06:52:31;;;;;;;;;;;;;;;7.57;45.50;99000.94;4835166;29;20015;-76
2021/03/14 06:54:58;;;;;;;;;;;;;;;7.58;46.30;99007.06;4836510;29;19939;-74
2021/03/14 06:57:26;;;;;;;;;;;;;;;7.70;45.68;99013.56;4839441;29;20525;-76
2021/03/14 06:59:54;;;;;;;;;;;;;;;7.85;44.86;99020.78;4846927;29;19936;-75
2021/03/14 07:02:23;;;;;;;;;;;;;;;7.95;43.71;99024.72;4831337;29;20535;-75
2021/03/14 07:04:50;;;;;;;;;;;;;;;8.05;43.25;99027.81;4835355;29;20268;-75
2021/03/14 07:07:20;;;;;;;;;;;;;;;8.09;42.26;99037.28;4833731;29;21270;-75
2021/03/14 07:09:48;;;;;;;;;;;;;;;8.14;42.17;99037.94;4848525;29;19981;-75
2021/03/14 07:12:16;;;;;;;;;;;;;;;8.22;41.33;99045.50;4841365;29;19978;-75
2021/03/14 07:14:43;;;;;;;;;;;;;;;8.30;40.74;99042.53;4844520;29;19930;-73
2021/03/14 07:17:25;;;;;;;;;;;;;;;8.40;40.15;99046.44;4843398;29;19939;-76
2021/03/14 07:19:54;;;;;;;;;;;;;;;8.54;40.16;99056.38;4841389;29;19932;-75
2021/03/14 07:22:22;;;;;;;;;;;;;;;8.49;40.09;99061.00;4843727;29;20036;-75
2021/03/14 07:24:49;;;;;;;;;;;;;;;8.39;40.42;99062.31;4835066;29;22722;-74
2021/03/14 07:27:19;;;;;;;;;;;;;;;8.31;41.82;99070.56;4831582;29;19929;-75
2021/03/14 07:29:47;;;;;;;;;;;;;;;8.25;42.57;99074.34;4831720;29;20486;-77
2021/03/14 07:32:15;;;;;;;;;;;;;;;8.30;42.89;99080.25;4833400;29;19939;-78
2021/03/14 07:34:43;;;;;;;;;;;;;;;8.34;43.40;99091.53;4835550;29;19932;-77
2021/03/14 07:37:10;;;;;;;;;;;;;;;8.42;43.29;99099.09;4833001;29;20487;-75
2021/03/14 07:39:37;;;;;;;;;;;;;;;8.33;44.41;99092.44;4838417;29;20385;-76
2021/03/14 07:42:04;;;;;;;;;;;;;;;8.31;44.71;99100.41;4830620;29;20400;-75
2021/03/14 07:44:31;;;;;;;;;;;;;;;8.33;45.11;99105.63;4831295;29;19969;-76
2021/03/14 07:46:59;;;;;;;;;;;;;;;8.33;45.21;99110.88;4833660;29;19928;-75
2021/03/14 07:49:27;;;;;;;;;;;;;;;8.31;45.83;99120.63;4828394;29;19933;-77
2021/03/14 07:51:55;;;;;;;;;;;;;;;8.29;45.95;99138.28;4847454;29;19936;-75
2021/03/14 07:54:24;;;;;;;;;;;;;;;8.29;46.00;99133.88;4837832;29;19932;-76
2021/03/14 07:56:52;;;;;;;;;;;;;;;8.29;46.08;99141.78;4830326;29;19971;-75
2021/03/14 07:59:24;;;;;;;;;;;;;;;8.33;46.48;99149.56;4845925;29;20063;-74
2021/03/14 08:01:51;;;;;;;;;;;;;;;8.35;46.66;99152.97;4830115;29;20868;-77
2021/03/14 08:04:32;;;;;;;;;;;;;;;8.36;46.82;99170.50;4833283;29;19937;-75
2021/03/14 08:06:59;;;;;;;;;;;;;;;8.36;47.27;99173.13;4836903;29;19928;-75
2021/03/14 08:09:40;;;;;;;;;;;;;;;8.41;46.88;99184.34;4834853;29;19939;-75
2021/03/14 08:12:14;;;;;;;;;;;;;;;8.44;46.64;99179.78;4828519;29;19928;-75
2021/03/14 08:14:42;;;;;;;;;;;;;;;8.52;47.27;99191.78;4835628;29;19937;-73
2021/03/14 08:17:16;;;;;;;;;;;;;;;8.66;46.58;99197.31;4839698;29;19951;-75
2021/03/14 08:19:45;;;;;;;;;;;;;;;8.75;47.07;99199.53;4834192;29;19957;-72
2021/03/14 08:22:39;;;;;;;;;;;;;;;8.75;47.10;99204.81;4833179;29;19940;-77
2021/03/14 08:25:22;;;;;;;;;;;;;;;8.90;46.58;99210.31;4824801;29;19943;-75
2021/03/14 08:27:50;;;;;;;;;;;;;;;9.12;45.79;99215.50;4827913;29;20127;-77
2021/03/14 08:30:36;;;;;;;;;;;;;;;9.25;45.76;99227.19;4835504;29;19944;-75
2021/03/14 08:33:21;;;;;;;;;;;;;;;9.13;46.83;99243.59;4836735;29;19936;-75
2021/03/14 08:35:54;;;;;;;;;;;;;;;8.96;47.07;99252.25;4833307;29;19961;-75
2021/03/14 08:38:26;;;;;;;;;;;;;;;8.79;47.54;99258.28;4833707;29;19939;-75
2021/03/14 08:41:12;;;;;;;;;;;;;;;8.71;47.88;99265.69;4814742;29;19940;-77
2021/03/14 08:43:43;;;;;;;;;;;;;;;8.67;48.20;99270.22;4833656;29;20230;-77
2021/03/14 08:46:16;;;;;;;;;;;;;;;8.67;48.58;99286.03;4848085;29;19953;-78
2021/03/14 08:48:47;;;;;;;;;;;;;;;8.73;48.70;99291.06;4836249;29;19933;-77
2021/03/14 08:51:15;;;;;;;;;;;;;;;8.86;48.50;99295.78;4831803;29;19990;-75
2021/03/14 08:54:13;;;;;;;;;;;;;;;8.87;48.09;99303.63;4827498;29;19928;-78
2021/03/14 08:56:41;;;;;;;;;;;;;;;8.99;46.62;99302.22;4824976;29;19940;-74
2021/03/14 08:59:10;;;;;;;;;;;;;;;9.06;45.56;99311.59;4833048;29;19928;-78
2021/03/14 09:01:42;;;;;;;;;;;;;;;9.11;44.40;99330.72;4836987;29;19933;-79
2021/03/14 09:04:16;;;;;;;;;;;;;;;9.33;43.91;99321.00;4850191;29;19940;-77
2021/03/14 09:06:51;;;;;;;;;;;;;;;9.41;42.64;99327.63;4832084;29;20039;-76
2021/03/14 09:09:21;;;;;;;;;;;;;;;9.49;42.33;99342.28;4832190;29;19929;-76
2021/03/14 09:12:15;;;;;;;;;;;;;;;9.90;40.62;99343.00;4829635;29;20436;-76
2021/03/14 09:14:52;;;;;;;;;;;;;;;10.06;39.40;99348.41;4828710;29;20015;-76
2021/03/14 09:17:36;;;;;;;;;;;;;;;10.06;39.89;99350.19;4832853;29;19944;-76
2021/03/14 09:20:16;;;;;;;;;;;;;;;9.90;41.04;99361.50;4828422;29;20413;-77
2021/03/14 09:22:44;;;;;;;;;;;;;;;10.24;41.11;99367.84;4826777;29;19928;-75
2021/03/14 09:25:20;;;;;;;;;;;;;;;10.34;41.32;99372.66;4834679;29;19932;-75
2021/03/14 09:27:48;;;;;;;;;;;;;;;10.51;41.15;99378.03;4835272;29;19988;-74
2021/03/14 09:30:22;;;;;;;;;;;;;;;10.64;40.13;99378.28;4840146;29;19937;-77
2021/03/14 09:33:01;;;;;;;;;;;;;;;10.78;39.46;99390.78;4821014;29;19957;-76
2021/03/14 09:35:30;;;;;;;;;;;;;;;10.88;38.86;99393.84;4835653;29;20393;-76
2021/03/14 09:38:09;;;;;;;;;;;;;;;10.93;38.04;99400.63;4837394;29;19939;-75
2021/03/14 09:40:37;;;;;;;;;;;;;;;11.23;37.29;99397.34;4839686;29;20432;-77
2021/03/14 09:43:15;;;;;;;;;;;;;;;11.52;36.68;99410.88;4827477;29;20388;-77
2021/03/14 09:46:01;;;;;;;;;;;;;;;11.46;36.61;99411.16;4829112;29;20002;-75
2021/03/14 09:48:32;;;;;;;;;;;;;;;12.01;36.03;99420.66;4829676;29;20000;-76
2021/03/14 09:51:04;;;;;;;;;;;;;;;12.20;36.14;99428.47;4814593;29;19928;-77
2021/03/14 09:53:33;;;;;;;;;;;;;;;11.97;37.07;99426.22;4836323;29;19929;-77
2021/03/14 09:56:02;;;;;;;;;;;;;;;11.87;37.70;99441.72;4833994;29;19929;-78
2021/03/14 09:58:50;;;;;;;;;;;;;;;12.81;36.05;99439.19;4836627;29;19937;-78
2021/03/14 10:01:17;;;;;;;;;;;;;;;12.40;37.13;99445.06;4833118;29;20370;-77
2021/03/14 10:03:44;;;;;;;;;;;;;;;12.42;37.64;99459.09;4836313;29;19932;-77
2021/03/14 10:06:38;;;;;;;;;;;;;;;12.47;37.91;99451.72;4840544;29;20024;-78
2021/03/14 10:09:20;;;;;;;;;;;;;;;13.05;36.94;99463.50;4838039;29;20004;-76
2021/03/14 10:11:47;;;;;;;;;;;;;;;13.09;36.90;99472.97;4823907;29;20365;-77
2021/03/14 10:14:16;;;;;;;;;;;;;;;12.98;37.32;99471.91;4834883;29;19932;-77
2021/03/14 10:16:43;;;;;;;;;;;;;;;13.29;37.10;99479.78;4850099;29;19944;-75
2021/03/14 10:19:12;;;;;;;;;;;;;;;13.28;37.33;99483.38;4830574;29;19956;-78
2021/03/14 10:21:43;;;;;;;;;;;;;;;13.72;36.49;99494.13;4835871;29;19961;-78
2021/03/14 10:24:21;;;;;;;;;;;;;;;16.06;32.42;99488.75;4850981;29;19932;-76
2021/03/14 10:27:11;;;;;;;;;;;;;;;17.35;29.89;99491.03;4833498;29;20000;-76
2021/03/14 10:29:55;;;;;;;;;;;;;;;15.50;33.78;99504.16;4838569;29;19932;-77
2021/03/14 10:32:45;;;;;;;;;;;;;;;14.74;35.48;99511.78;4831382;29;19932;-77
2021/03/14 10:35:21;;;;;;;;;;;;;;;14.99;35.41;99520.84;4835840;29;19996;-77
2021/03/14 10:37:50;;;;;;;;;;;;;;;14.37;36.89;99517.59;4838190;29;20569;-78
2021/03/14 10:40:23;;;;;;;;;;;;;;;13.99;37.98;99531.47;4823091;29;19966;-79
2021/03/14 10:42:54;;;;;;;;;;;;;;;14.05;37.77;99533.75;4852355;29;19952;-80
2021/03/14 10:45:33;;;;;;;;;;;;;;;14.76;36.56;99536.47;4816694;29;20003;-80
2021/03/14 10:48:05;;;;;;;;;;;;;;;14.33;37.66;99548.00;4818367;29;19948;-77
2021/03/14 10:50:37;;;;;;;;;;;;;;;14.34;37.78;99548.84;4835075;29;19933;-77
2021/03/14 10:53:12;;;;;;;;;;;;;;;15.34;35.91;99558.47;4837323;29;19928;-77
2021/03/14 10:56:03;;;;;;;;;;;;;;;15.48;35.66;99562.03;4855620;29;19936;-76
2021/03/14 10:58:38;;;;;;;;;;;;;;;14.74;37.39;99571.19;4826866;29;19929;-76
2021/03/14 11:01:28;;;;;;;;;;;;;;;14.47;38.34;99578.22;4821306;29;20537;-76
2021/03/14 11:04:05;;;;;;;;;;;;;;;14.41;38.53;99582.13;4825859;29;19940;-76
2021/03/14 11:06:35;;;;;;;;;;;;;;;14.75;37.88;99583.56;4819294;29;19928;-78
2021/03/14 11:09:18;;;;;;;;;;;;;;;15.34;36.63;99581.59;4818225;29;20023;-77
2021/03/14 11:11:49;;;;;;;;;;;;;;;14.80;37.88;99588.59;4824421;29;19935;-79
2021/03/14 11:14:34;;;;;;;;;;;;;;;14.53;38.78;99594.66;4821214;29;20053;-78
2021/03/14 11:17:23;;;;;;;;;;;;;;;17.51;33.03;99594.13;4840371;29;19936;-79
2021/03/14 11:20:04;;;;;;;;;;;;;;;16.87;33.91;99598.69;4821407;29;19962;-79
2021/03/14 11:22:38;;;;;;;;;;;;;;;16.48;34.92;99600.59;4827769;29;21095;-79
2021/03/14 11:25:12;;;;;;;;;;;;;;;16.90;34.17;99592.31;4838525;29;20405;-80
2021/03/14 11:27:40;;;;;;;;;;;;;;;16.39;35.21;99598.56;4830934;29;19936;-79
2021/03/14 11:30:08;;;;;;;;;;;;;;;16.53;35.15;99603.75;4835360;29;19944;-76
2021/03/14 11:32:38;;;;;;;;;;;;;;;17.55;33.33;99593.78;4825751;29;19997;-78
2021/03/14 11:35:19;;;;;;;;;;;;;;;19.47;30.09;99597.56;4841228;29;20097;-81
2021/03/14 11:38:03;;;;;;;;;;;;;;;19.91;29.12;99602.91;4843769;29;19929;-82
2021/03/14 11:40:56;;;;;;;;;;;;;;;19.44;30.20;99610.41;4844594;29;19936;-79
2021/03/14 11:43:45;;;;;;;;;;;;;;;21.58;26.91;99607.16;4840191;29;19943;-76
2021/03/14 11:46:20;;;;;;;;;;;;;;;20.48;28.70;99619.50;4834882;29;20008;-76
2021/03/14 11:48:54;;;;;;;;;;;;;;;20.38;28.94;99630.22;4837281;29;19937;-78
2021/03/14 11:51:23;;;;;;;;;;;;;;;21.41;27.65;99630.19;4845995;29;20327;-78
2021/03/14 11:53:55;;;;;;;;;;;;;;;22.54;25.72;99633.28;4833388;29;19943;-77
2021/03/14 11:56:23;;;;;;;;;;;;;;;21.97;26.82;99633.22;4828834;29;19936;-80
2021/03/14 11:58:58;;;;;;;;;;;;;;;21.57;27.65;99637.75;4833041;29;19967;-80
2021/03/14 12:01:36;;;;;;;;;;;;;;;21.39;28.14;99645.59;4838980;29;19940;-78
2021/03/14 12:04:11;;;;;;;;;;;;;;;22.02;27.45;99647.97;4832495;29;19959;-78
2021/03/14 12:07:40;;;;;;;;;;;;;;;21.64;28.07;99652.34;4822611;29;19947;-78
2021/03/14 12:11:02;;;;;;;;;;;;;;;23.33;25.83;99656.22;4847743;29;19984;-77
2021/03/14 12:13:45;;;;;;;;;;;;;;;26.57;21.68;99644.97;4828939;29;19943;-80
2021/03/14 12:41:36;;;;;;;;;;;;;;;38.62;11.33;99687.81;4832308;29;19947;-76
2021/03/14 12:44:13;;;;;;;;;;;;;;;38.59;11.55;99687.50;4830991;29;19936;-77
2021/03/14 12:46:54;;;;;;;;;;;;;;;39.11;11.56;99689.06;4834425;29;19929;-76
2021/03/14 12:49:32;;;;;;;;;;;;;;;39.24;11.23;99694.25;4829774;29;19940;-76
2021/03/14 12:51:59;;;;;;;;;;;;;;;39.31;11.39;99689.38;4841393;29;20023;-75
2021/03/14 12:54:27;;;;;;;;;;;;;;;38.07;12.42;99697.69;4834733;29;20423;-77
2021/03/14 12:56:54;;;;;;;;;;;;;;;38.93;12.20;99695.75;4827967;29;20002;-76
2021/03/14 12:59:22;;;;;;;;;;;;;;;37.60;13.25;99701.53;4840487;29;20325;-77
2021/03/14 13:01:49;;;;;;;;;;;;;;;39.65;11.35;99693.91;4835121;29;19937;-78
2021/03/14 13:04:16;;;;;;;;;;;;;;;40.67;10.91;99707.00;4838557;29;19933;-78
2021/03/14 13:06:43;;;;;;;;;;;;;;;40.59;11.09;99701.97;4825894;29;19936;-76
2021/03/14 13:09:10;;;;;;;;;;;;;;;41.50;10.48;99701.91;4841193;29;19968;-78
2021/03/14 13:11:38;;;;;;;;;;;;;;;41.62;10.46;99695.00;4843673;29;19935;-77
2021/03/14 13:14:05;;;;;;;;;;;;;;;42.16;10.13;99698.44;4844153;29;19936;-76
2021/03/14 13:16:32;;;;;;;;;;;;;;;42.24;10.32;99703.44;4846877;29;20655;-78
2021/03/14 13:18:59;;;;;;;;;;;;;;;41.31;10.93;99716.25;4845306;29;19933;-78
2021/03/14 13:21:27;;;;;;;;;;;;;;;40.08;12.06;99719.81;4835699;29;19933;-77
2021/03/14 13:23:53;;;;;;;;;;;;;;;38.72;13.23;99708.44;4848708;29;19957;-78
2021/03/14 13:26:20;;;;;;;;;;;;;;;39.56;12.53;99707.34;4843606;29;19957;-78
2021/03/14 13:28:49;;;;;;;;;;;;;;;40.79;11.99;99715.13;4850841;29;19929;-78
2021/03/14 13:31:21;;;;;;;;;;;;;;;40.47;12.04;99716.00;4846246;29;19969;-78
2021/03/14 13:33:49;;;;;;;;;;;;;;;38.93;13.44;99713.19;4842997;29;19985;-78
2021/03/14 13:36:16;;;;;;;;;;;;;;;38.44;13.79;99716.56;4849095;29;19957;-78
2021/03/14 13:38:43;;;;;;;;;;;;;;;37.50;14.88;99715.94;4845617;29;19933;-77